createdAt,value
2018-05-03T00:01:54.989Z,97669.76
2018-05-03T00:04:23.240Z,97674.80
2018-05-03T00:06:52.279Z,97674.83
2018-05-03T00:09:20.538Z,97674.48
2018-05-03T00:11:48.798Z,97668.51
2018-05-03T00:14:17.814Z,97669.39
2018-05-03T00:16:46.076Z,97674.80
2018-05-03T00:19:15.099Z,97675.14
2018-05-03T00:21:43.362Z,97668.84
2018-05-03T00:24:11.612Z,97660.87
2018-05-03T00:26:40.651Z,97660.47
2018-05-03T00:29:08.924Z,97665.55
2018-05-03T00:31:37.185Z,97663.95
2018-05-03T00:34:05.453Z,97661.36
2018-05-03T00:36:33.774Z,97657.19
2018-05-03T00:39:02.045Z,97665.74
2018-05-03T00:41:30.330Z,97665.86
2018-05-03T00:43:58.594Z,97665.48
2018-05-03T00:46:26.944Z,97668.16
2018-05-03T00:48:55.176Z,97672.44
2018-05-03T00:51:23.459Z,97658.57
2018-05-03T00:53:52.502Z,97670.05
2018-05-03T00:56:20.781Z,97674.77
2018-05-03T00:58:49.061Z,97685.44
2018-05-03T01:01:17.351Z,97685.48
2018-05-03T01:03:45.634Z,97688.44
2018-05-03T01:06:13.907Z,97686.86
2018-05-03T01:08:42.207Z,97686.02
2018-05-03T01:11:11.255Z,97683.83
2018-05-03T01:13:39.539Z,97684.15
2018-05-03T01:16:07.842Z,97686.27
2018-05-03T01:18:36.895Z,97688.80
2018-05-03T01:21:05.192Z,97692.77
2018-05-03T01:23:33.477Z,97689.83
2018-05-03T01:26:01.756Z,97684.01
2018-05-03T01:28:30.040Z,97680.19
2018-05-03T01:30:58.314Z,97675.46
2018-05-03T01:33:26.595Z,97686.52
2018-05-03T01:36:12.657Z,97686.47
2018-05-03T01:38:40.936Z,97698.34
2018-05-03T01:41:09.237Z,97695.36
2018-05-03T01:43:37.522Z,97704.30
2018-05-03T01:46:06.567Z,97698.80
2018-05-03T01:48:34.850Z,97697.92
2018-05-03T01:51:03.125Z,97703.76
2018-05-03T01:53:31.402Z,97706.16
2018-05-03T01:55:59.686Z,97709.08
2018-05-03T01:58:27.998Z,97693.50
2018-05-03T02:00:57.030Z,97695.92
2018-05-03T02:03:25.335Z,97692.63
2018-05-03T02:05:53.604Z,97692.98
2018-05-03T02:08:21.898Z,97704.04
2018-05-03T02:10:50.184Z,97697.68
2018-05-03T02:13:18.498Z,97690.50
2018-05-03T02:15:46.792Z,97692.77
2018-05-03T02:18:15.054Z,97694.38
2018-05-03T02:20:43.359Z,97688.00
2018-05-03T02:23:11.640Z,97689.64
2018-05-03T02:25:39.917Z,97689.67
2018-05-03T02:28:08.189Z,97695.20
2018-05-03T02:30:36.467Z,97695.23
2018-05-03T02:33:04.749Z,97685.88
2018-05-03T02:35:33.039Z,97687.50
2018-05-03T02:38:01.310Z,97681.86
2018-05-03T02:40:29.585Z,97687.73
2018-05-03T02:42:57.856Z,97683.66
2018-05-03T02:45:26.145Z,97685.73
2018-05-03T02:47:54.427Z,97691.66
2018-05-03T02:50:22.746Z,97689.58
2018-05-03T02:52:51.028Z,97703.87
2018-05-03T02:55:19.322Z,97703.84
2018-05-03T02:58:11.125Z,97708.52
2018-05-03T03:01:03.068Z,97707.48
2018-05-03T03:03:54.801Z,97712.58
2018-05-03T03:06:46.536Z,97716.26
2018-05-03T03:13:05.888Z,97737.91
2018-05-03T03:15:57.555Z,97739.86
2018-05-03T03:18:49.385Z,97742.36
2018-05-03T03:21:41.108Z,97741.06
2018-05-03T03:24:32.801Z,97735.59
2018-05-03T03:27:24.498Z,97736.06
2018-05-03T03:30:10.555Z,97733.10
2018-05-03T03:32:56.771Z,97739.00
2018-05-03T03:36:00.504Z,97737.33
2018-05-03T03:38:47.307Z,97739.39
2018-05-03T03:41:37.136Z,97736.52
2018-05-03T03:44:23.366Z,97738.20
2018-05-03T03:46:51.617Z,97727.86
2018-05-03T03:49:19.886Z,97726.22
2018-05-03T03:51:48.134Z,97727.37
2018-05-03T03:54:16.403Z,97728.08
2018-05-03T03:56:44.665Z,97720.69
2018-05-03T03:59:13.714Z,97720.54
2018-05-03T04:01:41.932Z,97726.80
2018-05-03T04:04:10.961Z,97727.18
2018-05-03T04:06:39.209Z,97729.77
2018-05-03T04:09:08.240Z,97732.22
2018-05-03T04:11:36.485Z,97736.55
2018-05-03T04:14:04.770Z,97746.81
2018-05-03T04:16:33.017Z,97748.50
2018-05-03T04:19:19.945Z,97755.82
2018-05-03T04:22:06.547Z,97758.75
2018-05-03T04:27:47.354Z,97762.91
2018-05-03T04:30:15.641Z,97763.45
2018-05-03T04:32:43.896Z,97761.39
2018-05-03T04:35:12.149Z,97751.44
2018-05-03T04:37:41.177Z,97746.73
2018-05-03T04:40:09.422Z,97750.41
2018-05-03T04:42:38.445Z,97744.05
2018-05-03T04:45:06.699Z,97747.81
2018-05-03T04:47:35.721Z,97752.05
2018-05-03T04:50:03.979Z,97757.58
2018-05-03T04:52:32.243Z,97766.48
2018-05-03T04:55:01.264Z,97765.59
2018-05-03T04:57:29.526Z,97770.25
2018-05-03T04:59:57.782Z,97775.75
2018-05-03T05:02:26.809Z,97779.50
2018-05-03T05:04:55.074Z,97779.48
2018-05-03T05:07:23.339Z,97780.28
2018-05-03T05:09:52.360Z,97773.96
2018-05-03T05:12:20.614Z,97771.45
2018-05-03T05:14:48.882Z,97770.66
2018-05-03T05:17:17.900Z,97774.88
2018-05-03T05:19:46.166Z,97780.81
2018-05-03T05:22:14.414Z,97785.08
2018-05-03T05:24:43.436Z,97790.14
2018-05-03T05:27:11.747Z,97790.86
2018-05-03T05:29:40.731Z,97797.31
2018-05-03T05:32:08.994Z,97797.63
2018-05-03T05:34:37.248Z,97802.95
2018-05-03T05:37:05.525Z,97808.34
2018-05-03T05:39:33.788Z,97815.48
2018-05-03T05:42:02.806Z,97820.55
2018-05-03T05:44:31.067Z,97816.80
2018-05-03T05:47:00.079Z,97821.52
2018-05-03T05:49:28.343Z,97817.56
2018-05-03T05:51:56.606Z,97838.96
2018-05-03T05:54:24.870Z,97837.81
2018-05-03T05:56:53.900Z,97844.13
2018-05-03T05:59:22.172Z,97839.79
2018-05-03T06:01:50.431Z,97835.95
2018-05-03T06:04:19.486Z,97843.34
2018-05-03T06:06:47.721Z,97852.14
2018-05-03T06:09:15.980Z,97847.97
2018-05-03T06:11:44.224Z,97841.77
2018-05-03T06:14:12.487Z,97844.31
2018-05-03T06:16:40.732Z,97839.96
2018-05-03T06:19:08.990Z,97840.80
2018-05-03T06:21:37.251Z,97845.22
2018-05-03T06:24:06.266Z,97855.06
2018-05-03T06:26:34.530Z,97861.69
2018-05-03T06:29:02.781Z,97865.56
2018-05-03T06:31:31.801Z,97870.62
2018-05-03T06:34:00.053Z,97873.13
2018-05-03T06:36:29.103Z,97876.94
2018-05-03T06:38:57.372Z,97881.41
2018-05-03T06:41:26.349Z,97884.53
2018-05-03T06:43:54.606Z,97888.25
2018-05-03T06:46:22.865Z,97887.38
2018-05-03T06:48:51.898Z,97886.81
2018-05-03T06:51:20.155Z,97890.81
2018-05-03T06:53:48.409Z,97892.56
2018-05-03T06:56:17.441Z,97889.65
2018-05-03T06:58:45.697Z,97880.44
2018-05-03T07:01:13.951Z,97888.75
2018-05-03T07:03:42.982Z,97889.91
2018-05-03T07:06:11.238Z,97898.32
2018-05-03T07:08:39.494Z,97893.32
2018-05-03T07:11:08.521Z,97891.41
2018-05-03T07:13:36.787Z,97894.04
2018-05-03T07:16:05.047Z,97900.92
2018-05-03T07:18:34.067Z,97904.83
2018-05-03T07:21:02.336Z,97909.36
2018-05-03T07:23:30.590Z,97915.55
2018-05-03T07:25:59.614Z,97917.42
2018-05-03T07:28:27.858Z,97913.52
2018-05-03T07:30:56.889Z,97912.77
2018-05-03T07:33:25.139Z,97913.36
2018-05-03T07:35:54.157Z,97920.16
2018-05-03T07:38:22.416Z,97921.97
2018-05-03T07:40:50.686Z,97920.44
2018-05-03T07:43:19.694Z,97914.85
2018-05-03T07:45:47.950Z,97921.69
2018-05-03T07:48:16.977Z,97918.96
2018-05-03T07:50:45.230Z,97922.25
2018-05-03T07:53:13.486Z,97922.87
2018-05-03T07:55:42.505Z,97924.31
2018-05-03T07:58:10.774Z,97920.29
2018-05-03T08:00:39.018Z,97929.48
2018-05-03T08:03:07.272Z,97937.45
2018-05-03T08:05:35.522Z,97942.16
2018-05-03T08:08:03.770Z,97937.21
2018-05-03T08:10:32.024Z,97943.60
2018-05-03T08:13:00.289Z,97944.00
2018-05-03T08:15:28.529Z,97945.94
2018-05-03T08:17:57.561Z,97941.66
2018-05-03T08:20:25.806Z,97941.80
2018-05-03T08:22:54.057Z,97947.87
2018-05-03T08:25:22.312Z,97954.88
2018-05-03T08:27:51.338Z,97948.05
2018-05-03T08:30:19.602Z,97961.19
2018-05-03T08:32:47.863Z,97960.59
2018-05-03T08:35:16.116Z,97965.15
2018-05-03T08:37:44.383Z,97967.82
2018-05-03T08:40:14.134Z,97974.69
2018-05-03T08:42:42.385Z,97975.72
2018-05-03T08:45:11.414Z,97978.12
2018-05-03T08:47:39.671Z,97981.49
2018-05-03T08:50:07.930Z,97978.41
2018-05-03T08:52:36.951Z,97994.76
2018-05-03T08:55:05.206Z,97983.48
2018-05-03T08:57:33.464Z,97989.52
2018-05-03T09:00:02.495Z,97983.77
2018-05-03T09:02:30.746Z,97976.06
2018-05-03T09:04:59.769Z,97980.31
2018-05-03T09:07:28.027Z,97980.89
2018-05-03T09:09:56.288Z,97986.17
2018-05-03T09:12:25.302Z,97988.23
2018-05-03T09:14:53.555Z,97990.68
2018-05-03T09:17:22.571Z,97989.25
2018-05-03T09:19:50.834Z,97986.14
2018-05-03T09:22:19.092Z,97993.25
2018-05-03T09:24:47.346Z,97999.23
2018-05-03T09:27:15.598Z,97990.57
2018-05-03T09:29:43.858Z,97997.16
2018-05-03T09:32:12.110Z,98004.64
2018-05-03T09:34:41.157Z,98019.26
2018-05-03T09:37:09.401Z,98010.11
2018-05-03T09:39:37.667Z,98012.03
2018-05-03T09:42:05.928Z,98023.42
2018-05-03T09:44:34.943Z,98020.12
2018-05-03T09:47:03.207Z,98021.30
2018-05-03T09:49:31.458Z,98024.75
2018-05-03T09:51:59.720Z,98027.77
2018-05-03T09:54:27.971Z,98032.53
2018-05-03T09:56:56.234Z,98023.33
2018-05-03T09:59:24.505Z,98037.63
2018-05-03T10:01:52.994Z,98033.03
2018-05-03T10:04:21.244Z,98031.77
2018-05-03T10:06:49.506Z,98031.98
2018-05-03T10:09:18.521Z,98039.19
2018-05-03T10:11:46.773Z,98028.66
2018-05-03T10:14:15.794Z,98037.76
2018-05-03T10:16:44.051Z,98028.22
2018-05-03T10:19:12.303Z,98029.69
2018-05-03T10:21:40.569Z,98026.43
2018-05-03T10:24:08.819Z,98029.98
2018-05-03T10:26:37.076Z,98029.41
2018-05-03T10:29:05.326Z,98027.79
2018-05-03T10:31:33.594Z,98031.08
2018-05-03T10:34:02.609Z,98019.75
2018-05-03T10:36:30.866Z,98027.48
2018-05-03T10:38:59.886Z,98030.49
2018-05-03T10:41:28.150Z,98033.32
2018-05-03T10:43:56.400Z,98023.56
2018-05-03T10:46:25.420Z,98018.08
2018-05-03T10:48:53.722Z,98018.75
2018-05-03T10:51:21.964Z,98011.20
2018-05-03T10:53:50.227Z,98020.47
2018-05-03T10:56:19.244Z,98022.16
2018-05-03T10:58:47.501Z,98022.00
2018-05-03T11:01:16.527Z,98028.66
2018-05-03T11:03:44.780Z,98024.09
2018-05-03T11:06:13.026Z,98025.16
2018-05-03T11:08:41.285Z,98011.31
2018-05-03T11:11:09.614Z,98012.64
2018-05-03T11:13:37.791Z,98015.45
2018-05-03T11:16:06.050Z,98010.02
2018-05-03T11:18:34.322Z,98008.59
2018-05-03T11:21:03.342Z,98007.79
2018-05-03T11:23:31.598Z,98006.09
2018-05-03T11:25:59.864Z,98007.25
2018-05-03T11:28:28.883Z,98002.33
2018-05-03T11:30:57.132Z,97999.38
2018-05-03T11:33:26.147Z,97999.67
2018-05-03T11:35:54.409Z,97996.58
2018-05-03T11:38:23.433Z,97996.66
2018-05-03T11:40:51.692Z,97998.31
2018-05-03T11:43:19.939Z,98009.31
2018-05-03T11:45:48.957Z,98001.70
2018-05-03T11:48:17.218Z,98006.09
2018-05-03T11:50:46.242Z,98001.65
2018-05-03T11:53:14.485Z,98005.95
2018-05-03T11:55:43.514Z,98006.19
2018-05-03T11:58:11.763Z,97996.67
2018-05-03T12:00:40.017Z,98002.92
2018-05-03T12:03:09.033Z,97999.72
2018-05-03T12:05:37.289Z,98009.59
2018-05-03T12:08:06.312Z,98009.41
2018-05-03T12:10:34.572Z,98012.44
2018-05-03T12:13:03.586Z,98017.39
2018-05-03T12:15:31.850Z,98011.65
2018-05-03T12:18:00.094Z,98008.34
2018-05-03T12:20:29.117Z,98010.17
2018-05-03T12:22:57.374Z,98012.67
2018-05-03T12:25:26.400Z,98011.63
2018-05-03T12:27:54.646Z,98007.27
2018-05-03T12:30:23.678Z,98002.45
2018-05-03T12:32:51.929Z,98012.88
2018-05-03T12:35:20.190Z,98003.44
2018-05-03T12:37:49.206Z,98009.27
2018-05-03T12:40:17.458Z,98008.78
2018-05-03T12:42:46.476Z,98008.80
2018-05-03T12:45:14.732Z,98002.48
2018-05-03T12:47:43.755Z,97998.99
2018-05-03T12:50:12.001Z,97999.06
2018-05-03T12:52:41.026Z,97996.97
2018-05-03T12:55:09.272Z,97992.77
2018-05-03T12:57:37.529Z,97992.85
2018-05-03T13:00:06.546Z,97995.34
2018-05-03T13:02:34.800Z,98006.02
2018-05-03T13:05:03.826Z,97998.57
2018-05-03T13:07:32.091Z,97998.63
2018-05-03T13:10:00.345Z,98002.89
2018-05-03T13:12:29.374Z,97993.95
2018-05-03T13:14:57.630Z,97990.53
2018-05-03T13:17:25.891Z,97999.05
2018-05-03T13:19:54.909Z,97992.58
2018-05-03T13:22:23.174Z,97990.42
2018-05-03T13:24:51.429Z,97989.20
2018-05-03T13:27:19.689Z,97992.62
2018-05-03T13:29:47.946Z,97979.66
2018-05-03T13:32:16.200Z,97991.73
2018-05-03T13:34:44.440Z,97986.91
2018-05-03T13:37:13.473Z,97984.88
2018-05-03T13:39:41.722Z,97997.78
2018-05-03T13:42:09.977Z,97982.42
2018-05-03T13:44:38.993Z,97983.00
2018-05-03T13:47:07.256Z,97981.48
2018-05-03T13:49:36.268Z,97985.65
2018-05-03T13:52:04.522Z,97982.23
2018-05-03T13:54:33.537Z,97979.50
2018-05-03T13:57:01.800Z,97982.45
2018-05-03T13:59:30.057Z,97974.55
2018-05-03T14:01:59.159Z,97972.89
2018-05-03T14:04:28.185Z,97969.72
2018-05-03T14:06:56.435Z,97964.34
2018-05-03T14:09:25.462Z,97966.04
2018-05-03T14:11:53.725Z,97966.76
2018-05-03T14:14:21.986Z,97960.77
2018-05-03T14:16:50.228Z,97963.18
2018-05-03T14:19:18.497Z,97962.30
2018-05-03T14:21:46.741Z,97974.60
2018-05-03T14:24:15.001Z,97972.73
2018-05-03T14:26:43.258Z,97962.88
2018-05-03T14:29:12.281Z,97956.41
2018-05-03T14:31:40.532Z,97962.19
2018-05-03T14:34:08.794Z,97963.24
2018-05-03T14:36:37.810Z,97968.91
2018-05-03T14:39:06.798Z,97971.16
2018-05-03T14:41:35.054Z,97965.94
2018-05-03T14:44:04.078Z,97972.83
2018-05-03T14:46:32.334Z,97960.78
2018-05-03T14:49:01.364Z,97956.98
2018-05-03T14:51:29.618Z,97953.77
2018-05-03T14:53:57.876Z,97964.77
2018-05-03T14:56:26.889Z,97957.00
2018-05-03T14:58:55.160Z,97960.95
2018-05-03T15:01:23.405Z,97966.98
2018-05-03T15:03:51.653Z,97967.95
2018-05-03T15:06:19.920Z,97971.10
2018-05-03T15:08:48.169Z,97969.52
2018-05-03T15:11:16.429Z,97964.70
2018-05-03T15:13:44.682Z,97973.57
2018-05-03T15:16:13.021Z,97978.58
2018-05-03T15:18:41.193Z,97969.78
2018-05-03T15:21:09.462Z,97979.42
2018-05-03T15:23:37.710Z,97978.48
2018-05-03T15:26:05.965Z,97982.40
2018-05-03T15:28:34.984Z,97984.17
2018-05-03T15:31:03.255Z,97984.34
2018-05-03T15:33:31.508Z,97984.59
2018-05-03T15:36:00.536Z,97982.72
2018-05-03T15:38:28.822Z,97973.92
2018-05-03T15:40:57.049Z,97977.34
2018-05-03T15:43:26.067Z,97977.36
2018-05-03T15:45:54.346Z,97969.57
2018-05-03T15:48:22.597Z,97964.63
2018-05-03T15:50:51.613Z,97977.47
2018-05-03T15:53:19.884Z,97976.32
2018-05-03T15:55:48.135Z,97974.06
2018-05-03T15:58:16.398Z,97976.34
2018-05-03T16:00:44.644Z,97979.05
2018-05-03T16:03:12.908Z,97985.46
2018-05-03T16:05:41.161Z,97982.63
2018-05-03T16:08:09.499Z,97983.30
2018-05-03T16:10:38.435Z,97977.73
2018-05-03T16:13:06.694Z,97977.47
2018-05-03T16:15:35.716Z,97988.03
2018-05-03T16:18:03.969Z,97982.50
2018-05-03T16:20:32.227Z,97981.17
2018-05-03T16:23:01.254Z,97972.31
2018-05-03T16:25:29.509Z,97979.74
2018-05-03T16:27:57.774Z,97979.88
2018-05-03T16:30:26.806Z,97978.88
2018-05-03T16:32:55.071Z,97983.97
2018-05-03T16:35:23.327Z,97987.54
2018-05-03T16:37:52.345Z,97987.22
2018-05-03T16:40:20.599Z,97992.93
2018-05-03T16:42:49.624Z,97986.70
2018-05-03T16:45:17.879Z,97983.09
2018-05-03T16:47:46.129Z,97990.92
2018-05-03T16:50:15.158Z,97990.59
2018-05-03T16:52:43.414Z,97993.05
2018-05-03T16:55:11.677Z,98003.86
2018-05-03T16:57:40.702Z,98007.16
2018-05-03T17:00:08.971Z,97999.52
2018-05-03T17:02:37.237Z,98001.81
2018-05-03T17:05:05.495Z,98006.93
2018-05-03T17:07:33.757Z,98001.48
2018-05-03T17:10:02.011Z,98001.12
2018-05-03T17:12:30.262Z,98011.32
2018-05-03T17:14:58.518Z,98009.80
2018-05-03T17:17:26.765Z,98005.16
2018-05-03T17:19:55.027Z,98013.98
2018-05-03T17:22:23.359Z,98013.17
2018-05-03T17:24:51.543Z,98023.27
2018-05-03T17:27:19.797Z,98023.19
2018-05-03T17:29:48.057Z,98021.99
2018-05-03T17:32:17.085Z,98028.19
2018-05-03T17:34:45.332Z,98033.95
2018-05-03T17:37:13.630Z,98041.98
2018-05-03T17:39:41.950Z,98043.66
2018-05-03T17:42:10.161Z,98047.12
2018-05-03T17:44:39.173Z,98043.73
2018-05-03T17:47:07.436Z,98039.91
2018-05-03T17:49:35.700Z,98054.70
2018-05-03T17:52:04.723Z,98055.43
2018-05-03T17:54:32.991Z,98051.83
2018-05-03T17:57:01.284Z,98060.55
2018-05-03T17:59:29.505Z,98059.38
2018-05-03T18:01:57.765Z,98058.30
2018-05-03T18:04:26.011Z,98059.06
2018-05-03T18:06:54.270Z,98064.06
2018-05-03T18:09:22.527Z,98076.49
2018-05-03T18:11:50.803Z,98084.07
2018-05-03T18:14:19.809Z,98084.03
2018-05-03T18:16:48.069Z,98077.52
2018-05-03T18:19:17.082Z,98090.72
2018-05-03T18:21:45.422Z,98101.05
2018-05-03T18:24:13.598Z,98108.01
2018-05-03T18:26:41.858Z,98107.20
2018-05-03T18:29:11.613Z,98110.41
2018-05-03T18:31:39.876Z,98120.53
2018-05-03T18:34:08.921Z,98124.78
2018-05-03T18:36:37.141Z,98123.05
2018-05-03T18:39:06.152Z,98128.28
2018-05-03T18:41:34.454Z,98131.83
2018-05-03T18:44:02.821Z,98132.82
2018-05-03T18:46:31.003Z,98139.55
2018-05-03T18:49:00.692Z,98131.13
2018-05-03T18:51:28.957Z,98141.96
2018-05-03T18:53:57.214Z,98141.59
2018-05-03T18:56:26.239Z,98142.25
2018-05-03T18:58:54.486Z,98147.13
2018-05-03T19:01:23.587Z,98155.73
2018-05-03T19:03:51.824Z,98153.31
2018-05-03T19:06:20.054Z,98161.08
2018-05-03T19:08:48.301Z,98162.92
2018-05-03T19:11:17.318Z,98175.23
2018-05-03T19:13:45.572Z,98175.43
2018-05-03T19:16:14.593Z,98179.87
2018-05-03T19:18:42.862Z,98175.16
2018-05-03T19:21:11.113Z,98192.34
2018-05-03T19:23:40.137Z,98192.20
2018-05-03T19:26:08.409Z,98197.03
2018-05-03T19:28:36.673Z,98195.37
2018-05-03T19:31:05.686Z,98199.27
2018-05-03T19:33:33.940Z,98201.61
2018-05-03T19:36:02.952Z,98202.78
2018-05-03T19:38:31.204Z,98201.91
2018-05-03T19:41:00.227Z,98212.47
2018-05-03T19:43:28.566Z,98215.95
2018-05-03T19:45:56.744Z,98212.23
2018-05-03T19:48:25.766Z,98215.80
2018-05-03T19:50:54.013Z,98224.59
2018-05-03T19:53:23.048Z,98229.84
2018-05-03T19:55:51.298Z,98233.47
2018-05-03T19:58:19.566Z,98232.20
2018-05-03T20:00:49.117Z,98233.20
2018-05-03T20:03:17.383Z,98242.52
2018-05-03T20:05:45.626Z,98240.52
2018-05-03T20:08:14.665Z,98243.58
2018-05-03T20:10:42.914Z,98243.60
2018-05-03T20:13:11.174Z,98249.15
2018-05-03T20:15:40.195Z,98250.80
2018-05-03T20:18:08.456Z,98249.60
2018-05-03T20:20:36.722Z,98255.61
2018-05-03T20:23:04.977Z,98257.45
2018-05-03T20:25:34.007Z,98257.52
2018-05-03T20:28:02.263Z,98265.23
2018-05-03T20:30:31.285Z,98266.62
2018-05-03T20:32:59.538Z,98265.96
2018-05-03T20:35:27.793Z,98265.48
2018-05-03T20:37:56.809Z,98266.87
2018-05-03T20:40:25.075Z,98266.52
2018-05-03T20:42:53.325Z,98268.75
2018-05-03T20:45:21.581Z,98272.95
2018-05-03T20:47:49.838Z,98276.81
2018-05-03T20:50:18.100Z,98273.20
2018-05-03T20:52:46.351Z,98277.91
2018-05-03T20:55:14.615Z,98279.69
2018-05-03T20:57:43.707Z,98280.77
2018-05-03T21:00:11.901Z,98279.57
2018-05-03T21:02:40.149Z,98279.10
2018-05-03T21:05:09.179Z,98272.47
2018-05-03T21:07:37.433Z,98286.63
2018-05-03T21:10:06.454Z,98287.95
2018-05-03T21:12:34.747Z,98291.76
2018-05-03T21:15:02.982Z,98290.52
2018-05-03T21:17:31.243Z,98302.48
2018-05-03T21:20:00.265Z,98297.81
2018-05-03T21:22:28.521Z,98306.73
2018-05-03T21:24:57.541Z,98301.69
2018-05-03T21:27:25.800Z,98297.43
2018-05-03T21:29:54.057Z,98295.77
2018-05-03T21:32:23.089Z,98294.56
2018-05-03T21:34:51.341Z,98292.09
2018-05-03T21:37:20.365Z,98294.73
2018-05-03T21:39:48.629Z,98293.45
2018-05-03T21:42:16.891Z,98293.51
2018-05-03T21:44:45.146Z,98294.01
2018-05-03T21:47:14.161Z,98291.92
2018-05-03T21:49:42.414Z,98286.51
2018-05-03T21:52:11.443Z,98292.95
2018-05-03T21:54:39.694Z,98290.03
2018-05-03T21:57:08.725Z,98293.48
2018-05-03T21:59:36.989Z,98293.58
2018-05-03T22:02:05.254Z,98293.18
2018-05-03T22:04:33.504Z,98304.62
2018-05-03T22:07:02.534Z,98299.95
2018-05-03T22:09:30.785Z,98304.16
2018-05-03T22:11:59.814Z,98303.77
2018-05-03T22:14:28.078Z,98305.03
2018-05-03T22:16:56.339Z,98302.93
2018-05-03T22:19:24.593Z,98307.60
2018-05-03T22:21:54.526Z,98296.98
2018-05-03T22:24:22.790Z,98298.22
2018-05-03T22:26:51.818Z,98305.36
2018-05-03T22:29:20.069Z,98311.39
2018-05-03T22:31:48.342Z,98313.07
2018-05-03T22:34:17.363Z,98316.47
2018-05-03T22:36:45.635Z,98314.77
2018-05-03T22:39:13.886Z,98313.11
2018-05-03T22:41:42.905Z,98316.92
2018-05-03T22:44:11.176Z,98319.47
2018-05-03T22:46:39.426Z,98321.11
2018-05-03T22:49:08.459Z,98319.42
2018-05-03T22:51:36.713Z,98318.18
2018-05-03T22:54:04.972Z,98322.00
2018-05-03T22:56:33.242Z,98321.16
2018-05-03T22:59:02.274Z,98322.94
2018-05-03T23:01:30.539Z,98322.06
2018-05-03T23:03:58.795Z,98322.52
2018-05-03T23:06:27.815Z,98328.47
2018-05-03T23:08:56.075Z,98327.22
2018-05-03T23:11:24.332Z,98326.41
2018-05-03T23:13:53.370Z,98327.69
2018-05-03T23:16:21.623Z,98326.11
2018-05-03T23:18:49.887Z,98320.59
2018-05-03T23:21:18.141Z,98325.77
2018-05-03T23:23:47.179Z,98327.09
2018-05-03T23:26:15.429Z,98324.58
2018-05-03T23:28:43.694Z,98331.33
2018-05-03T23:31:12.726Z,98338.13
2018-05-03T23:33:40.986Z,98342.45
2018-05-03T23:36:09.249Z,98343.24
2018-05-03T23:38:37.513Z,98351.73
2018-05-03T23:41:06.550Z,98349.19
2018-05-03T23:43:34.803Z,98357.25
2018-05-03T23:46:03.061Z,98359.39
2018-05-03T23:48:32.073Z,98356.42
2018-05-03T23:51:00.341Z,98357.28
2018-05-03T23:53:28.602Z,98356.50
2018-05-03T23:55:57.642Z,98348.89
2018-05-03T23:58:25.900Z,98359.39
